createdAt,value
2023-03-22T00:02:01.245Z,25.40
2023-03-22T00:04:27.334Z,32.57
2023-03-22T00:06:53.441Z,29.73
2023-03-22T00:09:19.707Z,23.87
2023-03-22T00:11:50.098Z,30.73
2023-03-22T00:14:17.512Z,27.50
2023-03-22T00:16:45.370Z,27.37
2023-03-22T00:19:11.772Z,32.50
2023-03-22T00:21:37.805Z,31.13
2023-03-22T00:24:04.143Z,30.90
2023-03-22T00:26:30.181Z,28.03
2023-03-22T00:28:56.207Z,31.00
2023-03-22T00:31:22.297Z,31.47
2023-03-22T00:33:48.398Z,24.63
2023-03-22T00:36:14.656Z,28.30
2023-03-22T00:38:43.491Z,29.13
2023-03-22T00:41:14.033Z,33.47
2023-03-22T00:43:40.628Z,28.63
2023-03-22T00:46:07.209Z,33.30
2023-03-22T00:48:33.313Z,32.17
2023-03-22T00:50:59.449Z,32.60
2023-03-22T00:53:25.609Z,31.03
2023-03-22T00:55:51.696Z,29.17
2023-03-22T00:58:17.772Z,26.40
2023-03-22T01:00:44.886Z,30.77
2023-03-22T01:03:13.514Z,31.53
2023-03-22T01:05:39.575Z,30.30
2023-03-22T01:08:07.660Z,34.57
2023-03-22T01:10:35.310Z,34.57
2023-03-22T01:13:01.509Z,30.93
2023-03-22T01:15:27.583Z,28.77
2023-03-22T01:17:53.668Z,26.17
2023-03-22T01:20:19.818Z,28.50
2023-03-22T01:22:45.952Z,30.27
2023-03-22T01:25:12.067Z,31.23
2023-03-22T01:27:38.345Z,30.83
2023-03-22T01:30:05.888Z,32.70
2023-03-22T01:32:32.822Z,34.10
2023-03-22T01:34:58.904Z,37.60
2023-03-22T01:37:27.003Z,36.33
2023-03-22T01:39:54.375Z,29.03
2023-03-22T01:42:21.749Z,32.03
2023-03-22T01:45:17.195Z,33.33
2023-03-22T01:47:58.444Z,32.97
2023-03-22T01:50:25.294Z,37.23
2023-03-22T01:52:52.149Z,32.77
2023-03-22T01:55:22.019Z,34.67
2023-03-22T01:57:48.624Z,34.27
2023-03-22T02:00:18.114Z,39.27
2023-03-22T02:02:47.102Z,32.97
2023-03-22T02:05:13.372Z,34.57
2023-03-22T02:07:41.640Z,35.00
2023-03-22T02:10:17.169Z,32.07
2023-03-22T02:13:08.305Z,31.97
2023-03-22T02:15:50.559Z,34.17
2023-03-22T02:18:31.818Z,36.60
2023-03-22T02:21:22.145Z,38.10
2023-03-22T02:23:57.238Z,31.17
2023-03-22T02:29:44.234Z,38.70
2023-03-22T02:32:39.281Z,30.63
2023-03-22T02:35:24.199Z,32.50
2023-03-22T02:38:08.621Z,33.27
2023-03-22T02:40:37.819Z,38.73
2023-03-22T02:43:16.331Z,41.03
2023-03-22T02:46:17.893Z,38.30
2023-03-22T02:48:52.819Z,26.60
2023-03-22T02:51:31.639Z,38.23
2023-03-22T02:54:08.692Z,32.57
2023-03-22T02:56:40.443Z,30.37
2023-03-22T02:59:07.813Z,34.87
2023-03-22T03:01:44.682Z,39.73
2023-03-22T03:04:15.342Z,33.53
2023-03-22T03:06:46.889Z,36.80
2023-03-22T03:09:18.617Z,36.30
2023-03-22T03:11:46.550Z,36.47
2023-03-22T03:14:23.309Z,39.73
2023-03-22T03:17:08.907Z,36.10
2023-03-22T03:19:45.600Z,38.40
2023-03-22T03:22:33.393Z,34.50
2023-03-22T03:25:11.957Z,46.87
2023-03-22T03:27:43.449Z,39.10
2023-03-22T03:30:13.670Z,39.10
2023-03-22T03:32:45.952Z,43.53
2023-03-22T03:35:23.186Z,41.33
2023-03-22T03:37:56.906Z,39.63
2023-03-22T03:40:28.849Z,42.47
2023-03-22T03:42:56.345Z,40.80
2023-03-22T03:45:22.774Z,43.83
2023-03-22T03:47:56.157Z,39.30
2023-03-22T03:50:24.139Z,42.77
2023-03-22T03:52:51.327Z,43.23
2023-03-22T03:55:17.757Z,41.43
2023-03-22T03:57:43.808Z,39.20
2023-03-22T04:00:10.488Z,42.13
2023-03-22T04:02:36.658Z,40.53
2023-03-22T04:05:03.251Z,40.07
2023-03-22T04:07:29.274Z,41.53
2023-03-22T04:09:55.379Z,44.03
2023-03-22T04:12:21.472Z,39.87
2023-03-22T04:14:47.568Z,40.57
2023-03-22T04:17:13.628Z,43.10
2023-03-22T04:19:40.687Z,36.97
2023-03-22T04:22:06.972Z,42.40
2023-03-22T04:24:33.096Z,48.03
2023-03-22T04:26:59.158Z,44.90
2023-03-22T04:29:25.332Z,49.90
2023-03-22T04:31:52.403Z,45.70
2023-03-22T04:34:18.501Z,48.40
2023-03-22T04:36:45.574Z,42.33
2023-03-22T04:39:11.933Z,46.87
2023-03-22T04:41:37.965Z,49.60
2023-03-22T04:44:05.212Z,47.90
2023-03-22T04:46:33.412Z,52.63
2023-03-22T04:48:59.824Z,47.47
2023-03-22T04:51:26.969Z,46.97
2023-03-22T04:53:53.697Z,49.17
2023-03-22T04:56:20.251Z,45.53
2023-03-22T04:58:46.628Z,46.17
2023-03-22T05:01:14.706Z,47.63
2023-03-22T05:03:42.287Z,53.10
2023-03-22T05:06:08.741Z,49.30
2023-03-22T05:08:35.215Z,53.60
2023-03-22T05:11:09.936Z,51.73
2023-03-22T05:13:37.338Z,48.73
2023-03-22T05:16:04.892Z,51.77
2023-03-22T05:18:32.076Z,43.60
2023-03-22T05:20:59.227Z,52.50
2023-03-22T05:23:25.621Z,48.17
2023-03-22T05:25:52.989Z,47.67
2023-03-22T05:28:21.527Z,44.50
2023-03-22T05:30:48.908Z,44.47
2023-03-22T05:33:16.268Z,45.93
2023-03-22T05:35:42.619Z,44.07
2023-03-22T05:38:09.237Z,43.50
2023-03-22T05:40:35.822Z,41.70
2023-03-22T05:43:01.893Z,41.50
2023-03-22T05:45:28.037Z,47.70
2023-03-22T05:47:54.157Z,42.63
2023-03-22T05:50:21.988Z,43.57
2023-03-22T05:52:48.470Z,45.07
2023-03-22T05:55:16.917Z,41.33
2023-03-22T05:57:43.999Z,41.30
2023-03-22T06:00:12.774Z,49.87
2023-03-22T06:02:43.015Z,47.77
2023-03-22T06:05:10.532Z,45.70
2023-03-22T06:07:37.322Z,49.70
2023-03-22T06:10:04.626Z,54.27
2023-03-22T06:12:30.848Z,53.13
2023-03-22T06:14:56.990Z,53.40
2023-03-22T06:17:23.567Z,51.30
2023-03-22T06:19:52.851Z,52.57
2023-03-22T06:22:19.477Z,51.73
2023-03-22T06:24:45.625Z,53.70
2023-03-22T06:27:12.260Z,53.30
2023-03-22T06:29:38.438Z,49.07
2023-03-22T06:32:04.662Z,55.37
2023-03-22T06:34:30.721Z,53.57
2023-03-22T06:36:56.886Z,54.07
2023-03-22T06:39:23.354Z,57.33
2023-03-22T06:41:49.786Z,48.27
2023-03-22T06:44:16.006Z,59.83
2023-03-22T06:46:42.508Z,49.07
2023-03-22T06:49:08.657Z,43.57
2023-03-22T06:51:34.816Z,48.20
2023-03-22T06:54:00.911Z,46.70
2023-03-22T06:56:27.074Z,45.40
2023-03-22T06:58:53.994Z,61.00
2023-03-22T07:01:20.765Z,53.40
2023-03-22T07:03:46.846Z,37.80
2023-03-22T07:06:12.904Z,47.87
2023-03-22T07:08:38.949Z,43.40
2023-03-22T07:11:06.204Z,44.80
2023-03-22T07:13:32.300Z,38.23
2023-03-22T07:16:00.640Z,41.80
2023-03-22T07:18:28.553Z,39.67
2023-03-22T07:20:55.122Z,36.30
2023-03-22T07:23:21.213Z,34.90
2023-03-22T07:25:48.597Z,35.27
2023-03-22T07:28:15.101Z,31.97
2023-03-22T07:30:41.852Z,24.30
2023-03-22T07:33:09.716Z,25.67
2023-03-22T07:35:36.662Z,23.50
2023-03-22T07:38:03.909Z,24.03
2023-03-22T07:40:30.672Z,21.03
2023-03-22T07:42:58.368Z,18.57
2023-03-22T07:45:25.048Z,20.00
2023-03-22T07:47:51.574Z,23.27
2023-03-22T07:50:18.008Z,19.43
2023-03-22T07:52:44.883Z,17.30
2023-03-22T07:55:13.035Z,19.80
2023-03-22T07:57:39.273Z,16.73
2023-03-22T08:00:06.750Z,28.13
2023-03-22T08:02:32.838Z,17.87
2023-03-22T08:04:58.899Z,17.70
2023-03-22T08:07:25.209Z,18.60
2023-03-22T08:09:51.576Z,16.60
2023-03-22T08:12:17.975Z,14.57
2023-03-22T08:14:50.183Z,18.77
2023-03-22T08:17:17.639Z,16.60
2023-03-22T08:19:44.751Z,20.73
2023-03-22T08:22:11.605Z,21.77
2023-03-22T08:24:37.842Z,15.63
2023-03-22T08:27:04.152Z,14.77
2023-03-22T08:29:30.556Z,13.47
2023-03-22T08:32:01.327Z,15.00
2023-03-22T08:34:28.998Z,15.40
2023-03-22T08:36:55.592Z,13.50
2023-03-22T08:39:21.867Z,12.57
2023-03-22T08:41:47.942Z,11.70
2023-03-22T08:44:13.996Z,11.80
2023-03-22T08:46:40.310Z,12.00
2023-03-22T08:49:06.429Z,12.30
2023-03-22T08:51:32.478Z,12.93
2023-03-22T08:53:59.526Z,11.20
2023-03-22T08:56:26.638Z,9.57
2023-03-22T08:58:53.101Z,10.07
2023-03-22T09:01:20.463Z,10.10
2023-03-22T09:03:46.847Z,9.60
2023-03-22T09:06:13.518Z,12.83
2023-03-22T09:08:40.608Z,10.40
2023-03-22T09:11:10.649Z,11.60
2023-03-22T09:13:37.212Z,9.30
2023-03-22T09:16:05.774Z,10.13
2023-03-22T09:18:31.904Z,9.23
2023-03-22T09:20:58.013Z,7.50
2023-03-22T09:23:24.120Z,8.40
2023-03-22T09:25:50.657Z,8.43
2023-03-22T09:28:16.855Z,8.10
2023-03-22T09:30:44.174Z,7.60
2023-03-22T09:33:10.633Z,10.93
2023-03-22T09:35:40.974Z,7.80
2023-03-22T09:38:07.664Z,8.40
2023-03-22T09:40:34.886Z,8.17
2023-03-22T09:43:04.042Z,7.20
2023-03-22T09:45:50.437Z,9.30
2023-03-22T09:48:20.305Z,6.70
2023-03-22T09:50:50.064Z,6.67
2023-03-22T09:53:16.879Z,6.30
2023-03-22T09:55:50.129Z,7.23
2023-03-22T09:58:25.433Z,7.37
2023-03-22T10:01:02.496Z,6.80
2023-03-22T10:03:59.584Z,6.70
2023-03-22T10:06:28.285Z,6.43
2023-03-22T10:09:15.234Z,7.57
2023-03-22T10:12:00.025Z,6.63
2023-03-22T10:14:33.182Z,8.53
2023-03-22T10:17:04.917Z,6.33
2023-03-22T10:19:35.473Z,10.07
2023-03-22T10:22:03.795Z,7.23
2023-03-22T10:24:32.737Z,6.43
2023-03-22T10:26:58.912Z,6.30
2023-03-22T10:29:35.620Z,6.90
2023-03-22T10:32:13.797Z,5.40
2023-03-22T10:34:40.048Z,4.83
2023-03-22T10:37:06.894Z,4.03
2023-03-22T10:39:39.840Z,3.80
2023-03-22T10:42:18.866Z,3.70
2023-03-22T10:45:03.762Z,4.73
2023-03-22T10:47:40.637Z,11.17
2023-03-22T10:50:28.176Z,7.53
2023-03-22T10:53:10.937Z,3.17
2023-03-22T10:55:41.409Z,3.23
2023-03-22T10:58:12.375Z,3.37
2023-03-22T11:00:53.136Z,4.53
2023-03-22T11:03:34.405Z,3.93
2023-03-22T11:06:06.697Z,3.83
2023-03-22T11:08:54.202Z,3.03
2023-03-22T11:11:33.404Z,3.67
2023-03-22T11:14:24.166Z,3.23
2023-03-22T11:17:07.437Z,2.97
2023-03-22T11:19:36.115Z,3.73
2023-03-22T11:22:05.603Z,4.33
2023-03-22T11:24:32.821Z,9.43
2023-03-22T11:27:19.637Z,9.30
2023-03-22T11:29:49.724Z,4.77
2023-03-22T11:32:42.072Z,2.83
2023-03-22T11:35:12.400Z,2.90
2023-03-22T11:37:46.968Z,3.47
2023-03-22T11:40:18.936Z,5.20
2023-03-22T11:42:46.589Z,5.57
2023-03-22T11:45:21.448Z,2.40
2023-03-22T11:47:47.577Z,3.40
2023-03-22T11:50:31.214Z,2.30
2023-03-22T11:52:57.465Z,4.60
2023-03-22T11:55:24.526Z,2.90
2023-03-22T11:57:51.195Z,2.50
2023-03-22T12:00:31.718Z,1.53
2023-03-22T12:03:04.867Z,5.33
2023-03-22T12:05:33.133Z,1.53
2023-03-22T12:08:38.027Z,2.47
2023-03-22T12:11:11.615Z,2.40
2023-03-22T12:13:43.652Z,2.27
2023-03-22T12:16:12.670Z,2.47
2023-03-22T12:19:08.093Z,2.70
2023-03-22T12:21:34.247Z,3.73
2023-03-22T12:24:02.377Z,2.70
2023-03-22T12:26:30.386Z,1.40
2023-03-22T12:29:09.038Z,2.33
2023-03-22T12:31:38.672Z,3.67
2023-03-22T12:34:09.382Z,1.57
2023-03-22T12:36:42.279Z,2.70
2023-03-22T12:39:13.379Z,1.60
2023-03-22T12:41:48.946Z,3.50
2023-03-22T12:44:35.335Z,2.10
2023-03-22T12:47:10.696Z,5.00
2023-03-22T12:49:43.619Z,1.87
2023-03-22T12:52:37.734Z,1.40
2023-03-22T12:55:20.076Z,3.93
2023-03-22T12:57:50.597Z,3.70
2023-03-22T13:00:17.428Z,3.93
2023-03-22T13:03:10.223Z,3.03
2023-03-22T13:05:36.833Z,3.10
2023-03-22T13:08:04.980Z,3.13
2023-03-22T13:10:35.585Z,1.27
2023-03-22T13:13:18.991Z,1.97
2023-03-22T13:16:10.274Z,2.47
2023-03-22T13:18:39.370Z,2.87
2023-03-22T13:21:16.053Z,2.10
2023-03-22T13:24:09.752Z,1.30
2023-03-22T13:26:52.461Z,4.50
2023-03-22T13:29:23.992Z,1.40
2023-03-22T13:32:12.955Z,3.67
2023-03-22T13:34:45.754Z,1.47
2023-03-22T13:37:46.209Z,1.50
2023-03-22T13:40:36.843Z,2.13
2023-03-22T13:43:12.156Z,2.30
2023-03-22T13:45:57.337Z,2.57
2023-03-22T13:48:49.995Z,1.40
2023-03-22T13:51:22.170Z,1.50
2023-03-22T13:53:57.609Z,1.57
2023-03-22T13:56:42.403Z,1.30
2023-03-22T13:59:19.679Z,1.87
2023-03-22T14:02:10.332Z,1.30
2023-03-22T14:04:43.642Z,2.13
2023-03-22T14:07:35.919Z,1.80
2023-03-22T14:10:05.925Z,3.40
2023-03-22T14:12:47.089Z,2.43
2023-03-22T14:15:26.458Z,5.93
2023-03-22T14:18:00.245Z,2.70
2023-03-22T14:20:31.748Z,1.90
